Time;durP1;ratioP1;P1;durP2;ratioP2;P2;SDS_P1;SDS_P2;PMS_P1;PMS_P2;Temp;Humidity;BMP_temperature;BMP_pressure;BME280_temperature;BME280_humidity;BME280_pressure;Samples;Min_cycle;Max_cycle;Signal;HPM_P1;HPM_P2
2023/03/22 00:01:47;;;;;;;13.35;8.18;;;9.80;99.90;;;;;;5051650;28;20470;-85
2023/03/22 00:04:13;;;;;;;11.23;9.00;;;9.80;99.90;;;;;;5088392;28;20127;-85
2023/03/22 00:06:38;;;;;;;11.25;8.50;;;9.70;99.90;;;;;;5052601;28;20100;-84
2023/03/22 00:09:04;;;;;;;10.43;8.70;;;9.60;99.90;;;;;;5068910;28;20791;-84
2023/03/22 00:11:30;;;;;;;12.05;7.85;;;9.60;99.90;;;;;;5068930;28;20413;-85
2023/03/22 00:13:57;;;;;;;9.77;8.07;;;9.60;99.90;;;;;;5065079;28;20041;-85
2023/03/22 00:16:23;;;;;;;10.98;7.95;;;9.60;99.90;;;;;;5070817;28;20043;-85
2023/03/22 00:18:49;;;;;;;12.27;6.97;;;9.50;99.90;;;;;;5068863;28;20074;-84
2023/03/22 00:21:15;;;;;;;11.93;7.22;;;9.60;99.90;;;;;;5067257;28;20040;-84
2023/03/22 00:23:42;;;;;;;11.48;6.75;;;9.50;99.90;;;;;;5071598;28;20044;-84
2023/03/22 00:26:09;;;;;;;11.68;6.30;;;9.50;99.90;;;;;;5051400;28;20055;-85
2023/03/22 00:28:36;;;;;;;10.18;6.68;;;9.40;99.90;;;;;;5081843;28;20051;-84
2023/03/22 00:31:03;;;;;;;9.70;6.18;;;9.40;99.90;;;;;;5058062;28;20486;-85
2023/03/22 00:33:30;;;;;;;11.90;6.22;;;9.40;99.90;;;;;;5051847;28;20180;-85
2023/03/22 00:36:03;;;;;;;9.98;6.13;;;9.30;99.90;;;;;;5050889;28;20056;-85
2023/03/22 00:38:35;;;;;;;12.82;6.63;;;9.30;99.90;;;;;;5068284;28;20048;-84
2023/03/22 00:41:36;;;;;;;8.45;6.03;;;9.30;99.90;;;;;;5067865;28;20608;-85
2023/03/22 00:44:02;;;;;;;9.50;6.20;;;9.20;99.90;;;;;;4969657;28;20061;-84
2023/03/22 00:46:28;;;;;;;10.77;6.30;;;9.10;99.90;;;;;;5040991;28;20048;-85
2023/03/22 00:48:53;;;;;;;8.82;5.85;;;9.10;99.90;;;;;;5048457;28;20059;-85
2023/03/22 00:51:19;;;;;;;8.38;5.28;;;9.10;99.90;;;;;;5060834;28;20048;-84
2023/03/22 00:53:48;;;;;;;10.85;5.18;;;9.10;99.90;;;;;;5051935;28;20079;-85
2023/03/22 00:56:17;;;;;;;9.00;4.95;;;9.10;99.90;;;;;;5068289;28;20047;-84
2023/03/22 00:58:43;;;;;;;8.85;5.30;;;9.10;99.90;;;;;;5086614;28;20043;-84
2023/03/22 01:01:12;;;;;;;8.15;5.10;;;9.10;99.90;;;;;;5068134;28;20047;-84
2023/03/22 01:03:38;;;;;;;8.05;4.70;;;9.10;99.90;;;;;;5068223;28;20168;-85
2023/03/22 01:06:04;;;;;;;8.75;4.78;;;9.20;99.90;;;;;;5059700;28;20159;-86
2023/03/22 01:08:32;;;;;;;7.18;4.50;;;9.10;99.90;;;;;;5059471;28;20123;-85
2023/03/22 01:10:57;;;;;;;10.00;5.00;;;9.10;99.90;;;;;;5051898;28;20469;-84
2023/03/22 01:13:23;;;;;;;6.60;4.68;;;9.20;99.90;;;;;;5051411;28;20044;-85
2023/03/22 01:15:50;;;;;;;7.30;4.50;;;9.10;99.90;;;;;;5050829;28;20040;-84
2023/03/22 01:18:16;;;;;;;8.20;4.45;;;9.10;99.90;;;;;;5050526;28;20123;-85
2023/03/22 01:20:42;;;;;;;10.32;4.72;;;9.10;99.90;;;;;;5066295;28;20078;-85
2023/03/22 01:23:07;;;;;;;7.18;3.83;;;9.20;99.90;;;;;;5051449;28;20064;-84
2023/03/22 01:25:33;;;;;;;8.13;4.18;;;9.20;99.90;;;;;;5068223;28;20112;-84
2023/03/22 01:28:01;;;;;;;8.13;4.45;;;9.20;99.90;;;;;;5067545;28;20059;-84
2023/03/22 01:30:27;;;;;;;7.25;4.20;;;9.20;99.90;;;;;;5068295;28;20115;-84
2023/03/22 01:32:52;;;;;;;10.13;4.57;;;9.20;99.90;;;;;;5066891;28;20036;-85
2023/03/22 01:35:18;;;;;;;9.48;4.85;;;9.20;99.90;;;;;;5065775;28;20055;-84
2023/03/22 01:37:44;;;;;;;8.48;4.80;;;9.20;99.90;;;;;;5067150;28;20104;-85
2023/03/22 01:40:11;;;;;;;7.50;4.18;;;9.20;99.90;;;;;;5069177;28;20044;-85
2023/03/22 01:42:37;;;;;;;5.85;3.70;;;9.20;99.90;;;;;;5066692;28;20059;-85
2023/03/22 01:45:12;;;;;;;6.07;3.95;;;9.20;99.90;;;;;;5067784;28;20052;-84
2023/03/22 01:47:44;;;;;;;7.80;4.20;;;9.20;99.90;;;;;;5067788;28;20051;-85
2023/03/22 01:50:10;;;;;;;5.70;3.60;;;9.20;99.90;;;;;;5067588;28;20452;-84
2023/03/22 01:52:37;;;;;;;10.85;4.30;;;9.20;99.90;;;;;;5065172;28;21028;-85
2023/03/22 01:55:05;;;;;;;9.90;4.50;;;9.20;99.90;;;;;;5067446;28;20053;-84
2023/03/22 01:57:36;;;;;;;8.32;3.95;;;9.20;99.90;;;;;;5085875;28;20093;-84
2023/03/22 02:00:09;;;;;;;7.00;4.20;;;9.10;99.90;;;;;;5070742;28;20063;-84
2023/03/22 02:02:36;;;;;;;7.90;4.20;;;9.30;99.90;;;;;;5054518;28;20544;-84
2023/03/22 02:05:03;;;;;;;6.72;3.70;;;9.20;99.90;;;;;;5071537;28;20425;-84
2023/03/22 02:07:30;;;;;;;7.80;3.58;;;9.20;99.90;;;;;;5071132;28;20089;-85
2023/03/22 02:09:57;;;;;;;10.57;4.43;;;9.20;99.90;;;;;;5071666;28;20187;-84
2023/03/22 02:12:28;;;;;;;7.28;3.75;;;9.20;99.90;;;;;;5070355;28;20097;-84
2023/03/22 02:15:21;;;;;;;7.17;3.23;;;9.20;99.90;;;;;;5089810;28;20131;-85
2023/03/22 02:18:10;;;;;;;8.98;4.18;;;9.20;99.90;;;;;;5070349;28;20170;-84
2023/03/22 02:20:54;;;;;;;5.60;3.53;;;9.20;99.90;;;;;;5056337;28;20048;-84
2023/03/22 02:23:40;;;;;;;9.70;3.72;;;9.20;99.90;;;;;;5068948;28;20177;-84
2023/03/22 02:26:18;;;;;;;8.35;3.80;;;9.10;99.90;;;;;;5070040;28;20048;-84
2023/03/22 02:28:49;;;;;;;9.43;3.60;;;9.20;99.90;;;;;;5070047;28;20101;-85
2023/03/22 02:31:36;;;;;;;7.93;3.83;;;9.10;99.90;;;;;;5088951;28;20082;-85
2023/03/22 02:34:27;;;;;;;8.05;3.40;;;9.20;99.90;;;;;;5089407;28;20440;-85
2023/03/22 02:37:18;;;;;;;6.00;3.58;;;9.20;99.90;;;;;;5058843;28;20355;-84
2023/03/22 02:40:12;;;;;;;8.10;3.20;;;9.20;99.90;;;;;;5070092;28;20046;-85
2023/03/22 02:43:03;;;;;;;8.90;3.22;;;9.20;99.90;;;;;;5070284;28;20710;-84
2023/03/22 02:45:46;;;;;;;7.40;3.10;;;9.20;99.90;;;;;;5071331;28;20455;-85
2023/03/22 02:48:24;;;;;;;6.55;3.05;;;9.20;99.90;;;;;;5069946;28;20040;-85
2023/03/22 02:51:12;;;;;;;7.85;3.28;;;9.20;99.90;;;;;;5088522;28;20078;-84
2023/03/22 02:54:17;;;;;;;8.70;3.20;;;9.20;99.90;;;;;;5070666;28;20401;-85
2023/03/22 02:56:52;;;;;;;5.43;2.90;;;9.20;99.90;;;;;;5049966;28;20424;-85
2023/03/22 02:59:20;;;;;;;8.65;3.15;;;9.10;99.90;;;;;;5057414;28;20071;-85
2023/03/22 03:01:53;;;;;;;7.25;3.17;;;9.30;99.90;;;;;;5072689;28;20075;-84
2023/03/22 03:04:25;;;;;;;7.90;3.15;;;9.10;99.90;;;;;;5061010;28;20415;-85
2023/03/22 03:06:54;;;;;;;7.75;3.10;;;9.10;99.90;;;;;;5055844;28;20063;-85
2023/03/22 03:09:21;;;;;;;7.55;2.97;;;9.10;99.90;;;;;;5070055;28;20055;-84
2023/03/22 03:11:50;;;;;;;5.63;2.90;;;9.10;99.90;;;;;;5071686;28;20063;-84
2023/03/22 03:14:33;;;;;;;6.75;3.03;;;9.00;99.90;;;;;;5053385;28;20048;-84
2023/03/22 03:17:09;;;;;;;9.10;2.88;;;9.00;99.90;;;;;;5069278;28;20047;-84
2023/03/22 03:19:48;;;;;;;6.90;3.25;;;9.00;99.90;;;;;;5070250;28;20082;-84
2023/03/22 03:22:39;;;;;;;9.48;3.38;;;9.00;99.90;;;;;;5034574;28;20626;-84
2023/03/22 03:25:08;;;;;;;5.50;2.92;;;9.00;99.90;;;;;;5069793;28;20067;-84
2023/03/22 03:27:43;;;;;;;8.65;2.55;;;9.00;99.90;;;;;;5069578;28;20457;-84
2023/03/22 03:30:19;;;;;;;7.95;3.55;;;9.00;99.90;;;;;;5068869;28;20379;-84
2023/03/22 03:32:55;;;;;;;6.35;3.10;;;9.00;99.90;;;;;;5069170;28;20052;-84
2023/03/22 03:35:32;;;;;;;8.85;3.40;;;9.00;99.90;;;;;;5070093;28;20048;-84
2023/03/22 03:38:23;;;;;;;7.07;2.97;;;9.00;99.90;;;;;;5052955;28;20398;-84
2023/03/22 03:40:54;;;;;;;7.40;2.88;;;9.00;99.90;;;;;;5069179;28;20192;-84
2023/03/22 03:43:21;;;;;;;6.30;3.50;;;9.00;99.90;;;;;;5051899;28;20121;-84
2023/03/22 03:45:47;;;;;;;9.18;3.33;;;9.00;99.90;;;;;;5068174;28;20066;-84
2023/03/22 03:48:27;;;;;;;8.90;3.55;;;9.00;99.90;;;;;;5069275;28;20048;-85
2023/03/22 03:50:54;;;;;;;7.93;3.05;;;9.00;99.90;;;;;;5070909;28;20055;-84
2023/03/22 03:53:20;;;;;;;4.45;2.45;;;8.90;99.90;;;;;;5069666;28;20402;-84
2023/03/22 03:55:46;;;;;;;9.05;2.80;;;8.90;99.90;;;;;;5069549;28;20052;-84
2023/03/22 03:58:12;;;;;;;7.30;2.97;;;8.90;99.90;;;;;;5051808;28;20037;-84
2023/03/22 04:00:38;;;;;;;6.07;2.75;;;8.90;99.90;;;;;;5069688;28;20036;-84
2023/03/22 04:03:04;;;;;;;7.07;2.95;;;8.90;99.90;;;;;;5068381;28;20040;-84
2023/03/22 04:05:30;;;;;;;6.22;2.97;;;8.90;99.90;;;;;;5068828;28;20080;-84
2023/03/22 04:07:56;;;;;;;8.40;2.90;;;8.90;99.90;;;;;;5068535;28;20052;-85
2023/03/22 04:10:22;;;;;;;7.25;3.28;;;8.90;99.90;;;;;;5069589;28;20040;-83
2023/03/22 04:12:47;;;;;;;7.88;3.88;;;8.90;99.90;;;;;;5067147;28;20055;-84
2023/03/22 04:15:17;;;;;;;7.53;3.10;;;8.90;99.90;;;;;;5066025;28;20040;-84
2023/03/22 04:17:42;;;;;;;8.93;3.80;;;8.90;99.90;;;;;;5068571;28;20097;-83
2023/03/22 04:20:09;;;;;;;8.07;4.15;;;8.90;99.90;;;;;;5069188;28;20032;-83
2023/03/22 04:22:40;;;;;;;9.40;4.13;;;9.00;99.90;;;;;;5061188;28;20045;-84
2023/03/22 04:25:12;;;;;;;6.85;3.90;;;9.00;99.90;;;;;;5059760;28;20048;-84
2023/03/22 04:27:39;;;;;;;10.25;4.70;;;9.00;99.90;;;;;;5063600;28;20805;-83
2023/03/22 04:30:09;;;;;;;7.43;4.10;;;9.00;99.90;;;;;;5068347;28;20043;-84
2023/03/22 04:32:36;;;;;;;7.95;3.97;;;9.00;99.90;;;;;;5065756;28;20142;-83
2023/03/22 04:35:03;;;;;;;8.40;4.80;;;9.00;99.90;;;;;;5059295;28;20045;-84
2023/03/22 04:37:30;;;;;;;7.63;5.18;;;9.00;99.90;;;;;;5067709;28;20040;-84
2023/03/22 04:39:56;;;;;;;11.95;5.70;;;9.00;99.90;;;;;;5068635;28;20052;-84
2023/03/22 04:42:22;;;;;;;12.48;6.38;;;9.00;99.90;;;;;;5068073;28;20044;-83
2023/03/22 04:44:48;;;;;;;13.68;6.90;;;9.10;99.90;;;;;;5085085;28;20066;-84
2023/03/22 04:47:13;;;;;;;12.73;7.55;;;9.10;99.90;;;;;;5069679;28;20052;-84
2023/03/22 04:49:39;;;;;;;11.13;8.40;;;9.10;99.90;;;;;;5068745;28;20494;-84
2023/03/22 04:52:07;;;;;;;13.05;8.88;;;9.20;99.90;;;;;;5069391;28;20383;-84
2023/03/22 04:54:33;;;;;;;17.63;9.40;;;9.80;99.90;;;;;;5068541;28;20044;-84
2023/03/22 04:56:59;;;;;;;14.98;9.32;;;9.40;99.90;;;;;;5084217;28;20406;-84
2023/03/22 04:59:25;;;;;;;16.25;9.15;;;9.70;99.90;;;;;;5067404;28;20040;-84
2023/03/22 05:01:51;;;;;;;14.57;9.40;;;9.50;99.90;;;;;;5069781;28;20408;-84
2023/03/22 05:04:17;;;;;;;12.75;8.73;;;9.50;99.90;;;;;;5051313;28;20048;-85
2023/03/22 05:06:44;;;;;;;13.85;9.32;;;9.50;99.90;;;;;;5060255;28;20037;-83
2023/03/22 05:09:10;;;;;;;14.80;9.73;;;9.50;99.90;;;;;;5065047;28;20044;-84
2023/03/22 05:11:36;;;;;;;16.40;9.95;;;9.50;99.90;;;;;;5068209;28;20051;-84
2023/03/22 05:14:05;;;;;;;16.33;9.75;;;9.50;99.90;;;;;;5051607;28;20103;-85
2023/03/22 05:16:31;;;;;;;15.05;9.85;;;9.50;99.90;;;;;;5065412;28;20044;-84
2023/03/22 05:18:57;;;;;;;15.75;10.38;;;10.00;99.90;;;;;;5067699;28;20339;-84
2023/03/22 05:21:27;;;;;;;13.15;9.30;;;9.50;99.90;;;;;;5085194;28;20032;-85
2023/03/22 05:23:57;;;;;;;14.50;9.63;;;9.50;99.90;;;;;;5050824;28;20044;-84
2023/03/22 05:26:25;;;;;;;14.23;10.65;;;9.50;99.90;;;;;;5083089;28;20043;-84
2023/03/22 05:28:54;;;;;;;14.68;10.82;;;9.40;99.90;;;;;;5066718;28;20076;-84
2023/03/22 05:31:21;;;;;;;16.35;10.18;;;9.40;99.90;;;;;;5066525;28;20090;-84
2023/03/22 05:33:50;;;;;;;16.50;10.80;;;9.40;99.90;;;;;;5087470;28;20042;-85
2023/03/22 05:36:18;;;;;;;15.10;10.10;;;9.40;99.90;;;;;;5091213;28;20060;-84
2023/03/22 05:38:45;;;;;;;14.48;10.15;;;9.40;99.90;;;;;;5071336;28;20202;-84
2023/03/22 05:41:12;;;;;;;16.45;10.13;;;9.40;99.90;;;;;;5072810;28;20134;-84
2023/03/22 05:43:37;;;;;;;16.80;10.90;;;9.80;99.90;;;;;;5071446;28;20048;-84
2023/03/22 05:46:07;;;;;;;15.43;11.10;;;9.40;99.90;;;;;;5071170;28;20417;-84
2023/03/22 05:48:34;;;;;;;14.15;10.57;;;9.40;99.90;;;;;;5070561;28;20040;-84
2023/03/22 05:51:08;;;;;;;13.88;10.40;;;9.40;99.90;;;;;;5072992;28;20032;-84
2023/03/22 05:53:34;;;;;;;12.90;9.43;;;9.40;99.90;;;;;;5070518;28;20055;-85
2023/03/22 05:56:00;;;;;;;19.02;11.25;;;9.40;99.90;;;;;;5090242;28;20040;-84
2023/03/22 05:58:30;;;;;;;17.20;10.10;;;9.40;99.90;;;;;;5053719;28;20055;-85
2023/03/22 06:00:59;;;;;;;16.42;10.55;;;9.40;99.90;;;;;;5054270;28;20560;-85
2023/03/22 06:03:27;;;;;;;16.02;10.07;;;9.40;99.90;;;;;;5070432;28;20123;-84
2023/03/22 06:05:53;;;;;;;13.43;9.88;;;9.40;99.90;;;;;;5072828;28;20407;-84
2023/03/22 06:08:20;;;;;;;16.48;9.45;;;9.40;99.90;;;;;;5070994;28;20606;-84
2023/03/22 06:10:50;;;;;;;14.73;9.48;;;9.40;99.90;;;;;;5070336;28;20056;-85
2023/03/22 06:13:20;;;;;;;14.63;10.07;;;9.40;99.90;;;;;;5071904;28;20078;-85
2023/03/22 06:15:46;;;;;;;11.85;9.32;;;9.40;99.90;;;;;;5060753;28;20398;-84
2023/03/22 06:18:12;;;;;;;13.18;9.35;;;9.40;99.90;;;;;;5066252;28;20047;-85
2023/03/22 06:20:38;;;;;;;14.68;9.63;;;9.50;99.90;;;;;;5063575;28;20395;-85
2023/03/22 06:23:04;;;;;;;16.50;10.07;;;9.80;99.90;;;;;;5069404;28;20048;-85
2023/03/22 06:25:31;;;;;;;14.13;9.55;;;9.50;99.90;;;;;;5054456;28;20683;-85
2023/03/22 06:27:56;;;;;;;17.67;9.85;;;9.60;99.90;;;;;;5050401;28;20052;-85
2023/03/22 06:30:22;;;;;;;11.98;8.93;;;9.60;99.90;;;;;;5061715;28;20066;-85
2023/03/22 06:32:48;;;;;;;12.85;9.27;;;9.60;99.90;;;;;;5070123;28;20052;-85
2023/03/22 06:35:14;;;;;;;14.07;9.25;;;9.70;99.90;;;;;;5063795;28;20481;-85
2023/03/22 06:37:40;;;;;;;11.63;9.07;;;9.70;99.90;;;;;;5070921;28;20127;-85
2023/03/22 06:40:07;;;;;;;15.65;9.18;;;9.70;99.90;;;;;;5071272;28;20602;-84
2023/03/22 06:42:38;;;;;;;12.65;9.13;;;9.80;99.90;;;;;;5071021;28;20040;-84
2023/03/22 06:45:04;;;;;;;12.90;8.70;;;10.30;99.90;;;;;;5069943;28;20059;-85
2023/03/22 06:47:37;;;;;;;15.27;9.05;;;9.90;99.90;;;;;;5054684;28;20048;-84
2023/03/22 06:50:03;;;;;;;14.57;8.10;;;10.00;99.90;;;;;;5069337;28;20513;-84
2023/03/22 06:52:29;;;;;;;12.43;8.70;;;10.00;99.90;;;;;;5070417;28;20047;-85
2023/03/22 06:54:55;;;;;;;14.23;8.23;;;10.10;99.90;;;;;;5071150;28;20051;-85
2023/03/22 06:57:21;;;;;;;14.23;8.23;;;10.10;99.90;;;;;;5053671;28;20047;-86
2023/03/22 06:59:46;;;;;;;12.73;8.30;;;10.20;99.90;;;;;;5070596;28;20040;-85
2023/03/22 07:02:12;;;;;;;9.35;7.47;;;10.30;99.90;;;;;;5069367;28;20444;-85
2023/03/22 07:04:38;;;;;;;10.43;7.68;;;10.30;99.90;;;;;;5037736;28;20513;-85
2023/03/22 07:07:04;;;;;;;9.75;7.07;;;10.40;99.90;;;;;;5052938;28;20048;-84
2023/03/22 07:09:30;;;;;;;11.60;7.80;;;10.40;99.90;;;;;;5054307;28;20044;-86
2023/03/22 07:11:56;;;;;;;11.63;7.25;;;10.50;99.90;;;;;;5066913;28;20516;-85
2023/03/22 07:14:25;;;;;;;9.93;7.22;;;10.50;99.90;;;;;;5068874;28;20138;-84
2023/03/22 07:16:50;;;;;;;11.07;7.28;;;10.50;99.90;;;;;;5064560;28;20043;-84
2023/03/22 07:19:17;;;;;;;8.32;6.53;;;10.50;99.90;;;;;;5069075;28;20044;-83
2023/03/22 07:21:43;;;;;;;11.15;7.00;;;10.60;99.90;;;;;;5069581;28;20056;-84
2023/03/22 07:24:10;;;;;;;9.10;6.50;;;10.60;99.90;;;;;;5052317;28;20409;-85
2023/03/22 07:26:37;;;;;;;9.52;6.30;;;10.70;99.90;;;;;;5067596;28;20052;-84
2023/03/22 07:29:04;;;;;;;11.32;6.78;;;10.70;99.90;;;;;;5068216;28;20525;-84
2023/03/22 07:31:30;;;;;;;8.65;6.07;;;10.70;99.90;;;;;;5060600;28;20657;-83
2023/03/22 07:33:56;;;;;;;13.10;7.53;;;10.70;99.90;;;;;;5080105;28;20077;-84
2023/03/22 07:36:24;;;;;;;11.00;6.30;;;10.70;99.90;;;;;;5051199;28;20040;-84
2023/03/22 07:38:50;;;;;;;10.18;5.97;;;10.80;99.90;;;;;;5069532;28;20044;-83
2023/03/22 07:41:17;;;;;;;11.77;6.32;;;10.80;99.90;;;;;;5070510;28;20051;-83
2023/03/22 07:43:43;;;;;;;10.23;6.15;;;10.80;99.90;;;;;;5067900;28;20066;-84
2023/03/22 07:46:09;;;;;;;8.27;5.13;;;10.80;99.90;;;;;;5067325;28;20050;-83
2023/03/22 07:48:35;;;;;;;6.72;5.53;;;10.80;99.90;;;;;;5051807;28;20036;-84
2023/03/22 07:51:01;;;;;;;9.85;5.40;;;10.80;99.90;;;;;;5068409;28;20058;-84
2023/03/22 07:53:26;;;;;;;8.73;5.68;;;10.80;99.90;;;;;;5067190;28;20036;-85
2023/03/22 07:55:52;;;;;;;8.27;4.85;;;10.80;99.90;;;;;;5070229;28;20449;-83
2023/03/22 07:58:18;;;;;;;8.35;5.43;;;10.90;99.90;;;;;;5069361;28;20561;-84
2023/03/22 08:00:43;;;;;;;7.57;5.05;;;10.80;99.90;;;;;;5068019;28;20039;-84
2023/03/22 08:03:12;;;;;;;6.78;5.10;;;10.80;99.90;;;;;;5067896;28;20051;-84
2023/03/22 08:05:41;;;;;;;7.90;5.10;;;10.80;99.90;;;;;;5052175;28;20048;-84
2023/03/22 08:08:07;;;;;;;8.30;5.20;;;10.70;99.90;;;;;;5062436;28;20827;-85
2023/03/22 08:10:33;;;;;;;9.40;5.07;;;10.70;99.90;;;;;;5066256;28;20055;-83
2023/03/22 08:12:59;;;;;;;8.45;4.90;;;10.70;99.90;;;;;;5068913;28;20040;-84
2023/03/22 08:15:25;;;;;;;7.90;4.55;;;10.80;99.90;;;;;;5068896;28;20075;-84
2023/03/22 08:17:51;;;;;;;8.27;4.90;;;10.80;99.90;;;;;;5067664;28;20040;-84
2023/03/22 08:20:17;;;;;;;9.45;5.20;;;11.10;99.90;;;;;;5086150;28;20036;-84
2023/03/22 08:22:44;;;;;;;8.10;5.03;;;10.80;99.90;;;;;;5067778;28;20055;-84
2023/03/22 08:25:10;;;;;;;8.10;4.40;;;10.90;99.90;;;;;;5086636;28;20522;-84
2023/03/22 08:27:35;;;;;;;8.20;4.75;;;11.00;99.90;;;;;;5085668;28;20047;-84
2023/03/22 08:30:01;;;;;;;9.43;4.78;;;11.00;99.90;;;;;;5068703;28;20040;-84
2023/03/22 08:32:27;;;;;;;11.13;4.90;;;11.00;99.90;;;;;;5087680;28;20226;-84
2023/03/22 08:34:53;;;;;;;7.70;4.53;;;11.30;99.90;;;;;;5069246;28;20218;-84
2023/03/22 08:37:19;;;;;;;7.05;4.40;;;10.90;99.90;;;;;;5068552;28;20074;-84
2023/03/22 08:39:45;;;;;;;7.78;4.18;;;10.90;99.90;;;;;;5052722;28;20059;-84
2023/03/22 08:42:12;;;;;;;7.07;4.75;;;11.00;99.90;;;;;;5053460;28;20178;-84
2023/03/22 08:44:37;;;;;;;10.57;4.30;;;11.10;99.90;;;;;;5087599;28;20067;-83
2023/03/22 08:47:03;;;;;;;7.18;4.28;;;11.50;99.90;;;;;;5068407;28;20036;-83
2023/03/22 08:49:30;;;;;;;9.13;4.38;;;11.10;99.90;;;;;;5087956;28;20123;-82
2023/03/22 08:51:56;;;;;;;4.65;3.75;;;11.10;99.90;;;;;;5069012;28;20238;-82
2023/03/22 08:54:23;;;;;;;8.02;4.50;;;11.20;99.90;;;;;;5069580;28;20864;-82
2023/03/22 08:56:49;;;;;;;11.43;5.15;;;11.30;99.90;;;;;;5068451;28;20055;-83
2023/03/22 08:59:15;;;;;;;7.05;3.90;;;11.40;99.90;;;;;;5069467;28;20085;-82
2023/03/22 09:01:43;;;;;;;7.97;4.07;;;11.50;99.90;;;;;;5052820;28;20040;-83
2023/03/22 09:04:08;;;;;;;6.28;4.25;;;11.70;99.90;;;;;;5068876;28;20130;-83
2023/03/22 09:06:34;;;;;;;11.05;3.85;;;11.70;99.90;;;;;;5068958;28;20447;-83
2023/03/22 09:08:59;;;;;;;11.20;4.30;;;11.80;99.90;;;;;;5086544;28;20044;-83
2023/03/22 09:11:26;;;;;;;9.73;3.88;;;11.80;99.90;;;;;;5087539;28;20048;-83
2023/03/22 09:13:52;;;;;;;6.40;3.65;;;11.80;99.90;;;;;;5068371;28;20051;-82
2023/03/22 09:16:17;;;;;;;6.07;4.18;;;11.80;99.90;;;;;;5068900;28;20394;-84
2023/03/22 09:18:43;;;;;;;10.07;3.88;;;12.00;99.90;;;;;;5066098;28;20055;-84
2023/03/22 09:21:10;;;;;;;8.07;3.60;;;12.00;99.90;;;;;;5082759;28;20117;-84
2023/03/22 09:23:37;;;;;;;9.02;3.90;;;12.10;99.90;;;;;;5065513;28;20079;-85
2023/03/22 09:26:05;;;;;;;10.23;4.30;;;12.10;99.90;;;;;;5069072;28;20183;-85
2023/03/22 09:28:31;;;;;;;5.78;3.72;;;12.40;99.90;;;;;;5086747;28;20067;-86
2023/03/22 09:31:06;;;;;;;9.82;4.20;;;12.10;99.90;;;;;;5069090;28;20072;-84
2023/03/22 09:33:32;;;;;;;9.73;3.55;;;12.10;99.90;;;;;;5066038;28;20136;-85
2023/03/22 09:35:58;;;;;;;6.75;3.28;;;12.10;99.90;;;;;;5079397;28;20060;-86
2023/03/22 09:38:26;;;;;;;9.27;3.75;;;12.10;99.90;;;;;;5063141;28;20059;-84
2023/03/22 09:41:01;;;;;;;8.95;3.60;;;12.10;99.90;;;;;;5068548;28;20386;-85
2023/03/22 09:43:31;;;;;;;8.52;3.30;;;12.30;99.90;;;;;;5068950;28;20048;-86
2023/03/22 09:45:58;;;;;;;9.35;3.30;;;12.10;99.90;;;;;;5068837;28;20048;-85
2023/03/22 09:48:37;;;;;;;9.27;3.80;;;12.10;99.90;;;;;;5068977;28;20048;-85
2023/03/22 09:51:06;;;;;;;6.07;3.47;;;12.00;99.90;;;;;;5068555;28;20044;-86
2023/03/22 09:53:32;;;;;;;6.95;2.97;;;12.00;99.90;;;;;;5047811;28;20048;-86
2023/03/22 09:56:02;;;;;;;5.82;3.40;;;11.90;99.90;;;;;;5066963;28;20044;-85
2023/03/22 09:58:46;;;;;;;9.55;3.75;;;11.80;99.90;;;;;;5048098;28;20131;-86
2023/03/22 10:01:30;;;;;;;4.40;3.47;;;11.70;99.90;;;;;;5058601;28;20498;-85
2023/03/22 10:04:01;;;;;;;5.07;3.63;;;11.60;99.90;;;;;;5086965;28;20063;-84
2023/03/22 10:06:27;;;;;;;9.15;3.67;;;11.60;99.90;;;;;;5067574;28;20044;-87
2023/03/22 10:09:24;;;;;;;6.88;3.40;;;11.80;99.90;;;;;;5065896;28;20028;-85
2023/03/22 10:12:15;;;;;;;6.47;3.17;;;11.50;99.90;;;;;;5069220;28;20205;-84
2023/03/22 10:15:05;;;;;;;8.18;3.35;;;11.40;99.90;;;;;;5066569;28;20075;-84
2023/03/22 10:17:33;;;;;;;6.88;3.25;;;11.50;99.90;;;;;;5052323;28;20131;-85
2023/03/22 10:20:08;;;;;;;4.60;3.00;;;11.40;99.90;;;;;;5089082;28;20071;-87
2023/03/22 10:22:39;;;;;;;8.35;3.00;;;11.50;99.90;;;;;;5072101;28;20032;-86
2023/03/22 10:25:07;;;;;;;5.78;3.22;;;11.70;99.90;;;;;;5055999;28;20042;-86
2023/03/22 10:27:33;;;;;;;7.22;3.67;;;11.50;99.90;;;;;;5072149;28;20040;-85
2023/03/22 10:30:06;;;;;;;10.23;3.83;;;11.50;99.90;;;;;;5071284;28;20410;-84
2023/03/22 10:33:12;;;;;;;8.18;3.05;;;11.80;99.90;;;;;;5089098;28;20048;-86
2023/03/22 10:35:42;;;;;;;8.02;3.67;;;11.40;99.90;;;;;;5042979;28;20052;-86
2023/03/22 10:38:17;;;;;;;7.70;3.67;;;11.30;99.90;;;;;;5062074;28;20059;-87
2023/03/22 10:40:45;;;;;;;7.22;2.92;;;11.30;99.90;;;;;;5070955;28;20093;-84
2023/03/22 10:43:20;;;;;;;7.97;3.95;;;11.30;99.90;;;;;;5089962;28;20501;-84
2023/03/22 10:45:46;;;;;;;6.35;3.50;;;11.20;99.90;;;;;;5054805;28;20468;-84
2023/03/22 10:48:26;;;;;;;5.53;3.20;;;11.20;99.90;;;;;;5070535;28;20084;-82
2023/03/22 10:50:53;;;;;;;6.57;3.47;;;11.20;99.90;;;;;;5070920;28;20056;-86
2023/03/22 10:53:18;;;;;;;4.38;3.03;;;11.20;99.90;;;;;;5071642;28;20582;-84
2023/03/22 10:55:44;;;;;;;7.15;3.80;;;11.20;99.90;;;;;;5065684;28;20122;-85
2023/03/22 10:58:13;;;;;;;5.03;3.22;;;11.20;99.90;;;;;;5087434;28;20359;-84
2023/03/22 11:00:55;;;;;;;10.57;3.40;;;11.10;99.90;;;;;;5072744;28;20047;-84
2023/03/22 11:03:35;;;;;;;5.20;2.70;;;11.20;99.90;;;;;;5089179;28;20101;-84
2023/03/22 11:06:14;;;;;;;4.50;2.65;;;11.10;99.90;;;;;;5071860;28;20044;-89
2023/03/22 11:08:41;;;;;;;5.35;2.60;;;11.10;99.90;;;;;;5072042;28;20127;-84
2023/03/22 11:11:29;;;;;;;6.90;3.10;;;11.10;99.90;;;;;;5070757;28;20408;-85
2023/03/22 11:14:06;;;;;;;5.90;3.03;;;11.10;99.90;;;;;;5062938;28;21014;-85
2023/03/22 11:16:43;;;;;;;8.00;3.92;;;11.00;99.90;;;;;;5069237;28;20442;-84
2023/03/22 11:19:17;;;;;;;7.47;3.50;;;11.00;99.90;;;;;;5085356;28;22014;-84
2023/03/22 11:21:44;;;;;;;8.40;2.90;;;11.00;99.90;;;;;;5066585;28;20483;-84
2023/03/22 11:24:14;;;;;;;5.45;2.92;;;11.00;99.90;;;;;;5069686;28;20051;-86
2023/03/22 11:26:40;;;;;;;6.70;3.22;;;11.00;99.90;;;;;;5068740;28;20066;-85
2023/03/22 11:29:18;;;;;;;7.05;2.75;;;11.00;99.90;;;;;;5065491;28;20080;-84
2023/03/22 11:31:58;;;;;;;6.70;3.08;;;11.00;99.90;;;;;;5067968;28;20036;-83
2023/03/22 11:34:28;;;;;;;6.75;3.00;;;11.00;99.90;;;;;;5071236;28;20087;-85
2023/03/22 11:36:57;;;;;;;6.35;2.97;;;11.00;99.90;;;;;;5050115;28;20821;-85
2023/03/22 11:39:27;;;;;;;7.43;3.22;;;11.00;99.90;;;;;;5070615;28;20044;-85
2023/03/22 11:42:00;;;;;;;7.38;3.30;;;11.10;99.90;;;;;;5085032;28;20028;-86
2023/03/22 11:44:33;;;;;;;5.88;2.90;;;11.00;99.90;;;;;;5067352;28;20048;-86
2023/03/22 11:47:00;;;;;;;3.58;2.90;;;11.00;99.90;;;;;;5050002;28;20089;-85
2023/03/22 11:49:53;;;;;;;5.78;2.40;;;11.10;99.90;;;;;;5066786;28;20125;-87
2023/03/22 11:52:28;;;;;;;5.78;3.63;;;11.30;99.90;;;;;;5052951;28;20454;-85
2023/03/22 11:54:57;;;;;;;7.30;3.67;;;11.10;99.90;;;;;;5070529;28;20509;-87
2023/03/22 11:57:27;;;;;;;5.00;3.40;;;11.20;99.90;;;;;;5070149;28;20040;-85
2023/03/22 12:00:02;;;;;;;5.55;2.75;;;11.20;99.90;;;;;;5070498;28;20174;-86
2023/03/22 12:02:37;;;;;;;5.00;3.13;;;11.20;99.90;;;;;;5070149;28;20134;-86
2023/03/22 12:05:26;;;;;;;6.13;2.78;;;11.10;99.90;;;;;;5068874;28;20036;-85
2023/03/22 12:08:00;;;;;;;6.38;3.10;;;11.20;99.90;;;;;;5068928;28;20052;-84
2023/03/22 12:10:35;;;;;;;6.03;3.33;;;11.10;99.90;;;;;;5068746;28;20375;-85
2023/03/22 12:13:09;;;;;;;7.50;3.10;;;11.10;99.90;;;;;;5069021;28;20129;-85
2023/03/22 12:15:39;;;;;;;6.43;3.35;;;11.00;99.90;;;;;;5068426;28;20040;-85
2023/03/22 12:18:16;;;;;;;7.75;3.95;;;11.10;99.90;;;;;;5064401;28;20053;-85
2023/03/22 12:20:47;;;;;;;6.03;3.50;;;11.10;99.90;;;;;;5060730;28;20147;-86
2023/03/22 12:23:19;;;;;;;8.55;3.83;;;11.00;99.90;;;;;;5076374;28;20366;-85
2023/03/22 12:25:57;;;;;;;5.93;3.97;;;11.40;99.90;;;;;;5088334;28;20119;-85
2023/03/22 12:28:30;;;;;;;5.28;3.40;;;11.00;99.90;;;;;;5067960;28;20082;-85
2023/03/22 12:30:59;;;;;;;7.85;3.30;;;10.90;99.90;;;;;;5070164;28;20055;-89
2023/03/22 12:33:38;;;;;;;5.60;3.42;;;11.00;99.90;;;;;;5069683;28;20163;-86
2023/03/22 12:36:05;;;;;;;6.38;3.15;;;10.90;99.90;;;;;;5069214;28;20445;-86
2023/03/22 12:38:45;;;;;;;5.03;2.97;;;10.90;99.90;;;;;;5068523;28;20418;-85
2023/03/22 12:41:16;;;;;;;5.75;3.08;;;10.90;99.90;;;;;;5070106;28;20101;-85
2023/03/22 12:43:48;;;;;;;7.85;3.42;;;10.90;99.90;;;;;;5067379;28;20093;-85
2023/03/22 12:46:19;;;;;;;6.47;3.63;;;10.90;99.90;;;;;;5066304;28;20518;-86
2023/03/22 12:48:53;;;;;;;6.32;3.30;;;10.90;99.90;;;;;;5061015;28;20028;-85
2023/03/22 12:51:19;;;;;;;8.45;4.45;;;10.90;99.90;;;;;;5098052;28;20092;-86
2023/03/22 12:53:51;;;;;;;4.32;2.90;;;10.90;99.90;;;;;;5090031;28;20067;-85
2023/03/22 12:56:23;;;;;;;7.03;3.90;;;10.80;99.90;;;;;;5084660;28;20040;-86
2023/03/22 12:58:56;;;;;;;7.28;3.85;;;10.80;99.90;;;;;;5080821;28;20071;-86
2023/03/22 13:01:28;;;;;;;7.43;3.70;;;10.80;99.90;;;;;;5069229;28;20036;-85
2023/03/22 13:03:56;;;;;;;5.85;3.55;;;10.80;99.90;;;;;;5053229;28;20501;-86